createdAt,value
2022-10-24T00:01:18.451Z,7.25
2022-10-24T00:03:45.175Z,7.24
2022-10-24T00:06:13.052Z,7.37
2022-10-24T00:08:41.610Z,7.36
2022-10-24T00:11:14.808Z,7.15
2022-10-24T00:13:42.130Z,7.09
2022-10-24T00:16:09.253Z,7.13
2022-10-24T00:18:36.155Z,6.70
2022-10-24T00:21:03.919Z,6.69
2022-10-24T00:23:30.761Z,6.99
2022-10-24T00:26:01.837Z,7.07
2022-10-24T00:28:29.645Z,7.36
2022-10-24T00:30:56.858Z,7.17
2022-10-24T00:33:23.780Z,6.91
2022-10-24T00:35:50.462Z,7.06
2022-10-24T00:38:17.129Z,7.19
2022-10-24T00:40:44.037Z,6.93
2022-10-24T00:43:23.208Z,6.81
2022-10-24T00:45:57.634Z,7.08
2022-10-24T00:48:35.143Z,6.89
2022-10-24T00:51:11.117Z,6.86
2022-10-24T00:53:45.437Z,6.91
2022-10-24T00:56:14.761Z,6.84
2022-10-24T00:58:44.101Z,6.95
2022-10-24T01:01:12.010Z,7.09
2022-10-24T01:03:39.024Z,6.83
2022-10-24T01:06:23.998Z,6.87
2022-10-24T01:09:01.737Z,6.97
2022-10-24T01:12:03.234Z,6.98
2022-10-24T01:14:48.331Z,6.74
2022-10-24T01:17:44.257Z,6.78
2022-10-24T01:20:42.822Z,6.80
2022-10-24T01:23:45.560Z,6.67
2022-10-24T01:27:01.875Z,6.62
2022-10-24T01:29:51.093Z,6.46
2022-10-24T01:32:58.541Z,6.48
2022-10-24T01:35:41.158Z,6.74
2022-10-24T01:38:19.843Z,6.64
2022-10-24T01:41:06.639Z,6.59
2022-10-24T01:43:42.001Z,6.35
2022-10-24T01:46:13.685Z,6.36
2022-10-24T01:48:46.803Z,6.61
2022-10-24T01:51:16.775Z,6.52
2022-10-24T01:53:46.241Z,6.67
2022-10-24T01:56:12.910Z,6.74
2022-10-24T01:58:39.513Z,6.46
2022-10-24T02:01:12.266Z,6.62
2022-10-24T02:03:43.003Z,6.73
2022-10-24T02:06:16.207Z,6.44
2022-10-24T02:08:49.222Z,6.42
2022-10-24T02:11:15.968Z,6.45
2022-10-24T02:14:01.538Z,6.66
2022-10-24T02:16:29.414Z,6.70
2022-10-24T02:18:57.815Z,6.84
2022-10-24T02:21:32.597Z,6.75
2022-10-24T02:24:10.789Z,6.77
2022-10-24T02:26:47.065Z,6.80
2022-10-24T02:29:29.884Z,6.69
2022-10-24T02:31:58.736Z,6.74
2022-10-24T02:34:32.725Z,6.88
2022-10-24T02:37:01.152Z,7.02
2022-10-24T02:39:29.128Z,7.10
2022-10-24T02:41:58.486Z,6.94
2022-10-24T02:44:27.054Z,6.94
2022-10-24T02:46:57.287Z,6.31
2022-10-24T02:49:24.773Z,6.52
2022-10-24T02:51:53.426Z,6.52
2022-10-24T02:54:20.330Z,6.47
2022-10-24T02:56:52.165Z,6.53
2022-10-24T02:59:18.933Z,6.53
2022-10-24T03:01:45.618Z,6.63
2022-10-24T03:04:12.399Z,6.71
2022-10-24T03:06:39.055Z,6.80
2022-10-24T03:09:05.727Z,6.79
2022-10-24T03:11:32.334Z,6.39
2022-10-24T03:13:59.067Z,6.39
2022-10-24T03:16:26.285Z,6.52
2022-10-24T03:18:52.940Z,6.46
2022-10-24T03:21:19.530Z,6.36
2022-10-24T03:23:46.196Z,6.53
2022-10-24T03:26:13.102Z,6.38
2022-10-24T03:28:39.852Z,6.59
2022-10-24T03:31:06.542Z,6.64
2022-10-24T03:33:33.351Z,6.53
2022-10-24T03:36:00.089Z,6.59
2022-10-24T03:38:27.417Z,6.62
2022-10-24T03:40:54.198Z,6.43
2022-10-24T03:43:20.857Z,6.45
2022-10-24T03:45:47.714Z,6.31
2022-10-24T03:48:14.454Z,6.48
2022-10-24T03:50:41.167Z,6.51
2022-10-24T03:53:08.233Z,6.55
2022-10-24T03:55:35.271Z,6.44
2022-10-24T03:58:01.941Z,6.34
2022-10-24T04:00:29.263Z,6.42
2022-10-24T04:02:56.359Z,6.57
2022-10-24T04:05:23.019Z,6.25
2022-10-24T04:07:49.688Z,6.33
2022-10-24T04:10:16.477Z,6.33
2022-10-24T04:12:43.088Z,6.43
2022-10-24T04:15:10.453Z,6.41
2022-10-24T04:17:37.250Z,6.48
2022-10-24T04:20:05.151Z,6.53
2022-10-24T04:22:31.884Z,6.47
2022-10-24T04:24:58.526Z,6.40
2022-10-24T04:27:25.457Z,6.53
2022-10-24T04:29:52.138Z,6.49
2022-10-24T04:32:18.882Z,6.41
2022-10-24T04:34:45.583Z,6.40
2022-10-24T04:37:12.302Z,6.45
2022-10-24T04:39:39.256Z,6.44
2022-10-24T04:42:05.939Z,6.42
2022-10-24T04:44:32.700Z,6.26
2022-10-24T04:46:59.313Z,6.35
2022-10-24T04:49:26.017Z,6.29
2022-10-24T04:51:52.641Z,6.19
2022-10-24T04:54:19.316Z,6.16
2022-10-24T04:56:45.968Z,6.28
2022-10-24T04:59:12.623Z,6.11
2022-10-24T05:01:39.338Z,6.21
2022-10-24T05:04:06.079Z,6.40
2022-10-24T05:06:32.682Z,6.52
2022-10-24T05:08:59.334Z,6.66
2022-10-24T05:11:26.064Z,6.62
2022-10-24T05:13:52.900Z,6.72
2022-10-24T05:16:19.538Z,6.80
2022-10-24T05:18:46.184Z,6.98
2022-10-24T05:21:12.918Z,6.74
2022-10-24T05:23:39.575Z,6.94
2022-10-24T05:26:06.251Z,7.05
2022-10-24T05:28:33.072Z,7.23
2022-10-24T05:30:59.823Z,7.35
2022-10-24T05:33:26.724Z,7.43
2022-10-24T05:35:53.905Z,7.57
2022-10-24T05:38:20.634Z,7.42
2022-10-24T05:40:49.294Z,7.69
2022-10-24T05:43:18.431Z,7.69
2022-10-24T05:45:47.132Z,7.64
2022-10-24T05:48:13.804Z,7.88
2022-10-24T05:50:41.043Z,8.02
2022-10-24T05:53:08.836Z,8.04
2022-10-24T05:55:36.195Z,8.29
2022-10-24T05:58:03.199Z,8.34
2022-10-24T06:00:29.985Z,8.52
2022-10-24T06:02:56.634Z,8.71
2022-10-24T06:05:23.338Z,9.66
2022-10-24T06:07:49.954Z,10.93
2022-10-24T06:10:16.669Z,12.20
2022-10-24T06:12:43.722Z,13.17
2022-10-24T06:15:13.055Z,13.71
2022-10-24T06:17:39.686Z,14.79
2022-10-24T06:20:06.830Z,15.21
2022-10-24T06:22:33.530Z,15.91
2022-10-24T06:25:00.245Z,16.80
2022-10-24T06:27:26.986Z,17.71
2022-10-24T06:29:53.667Z,18.42
2022-10-24T06:32:20.311Z,19.46
2022-10-24T06:34:46.957Z,20.11
2022-10-24T06:37:13.690Z,20.33
2022-10-24T06:39:40.311Z,21.03
2022-10-24T06:42:07.031Z,20.80
2022-10-24T06:44:33.758Z,21.88
2022-10-24T06:47:00.402Z,22.01
2022-10-24T06:49:27.086Z,22.62
2022-10-24T06:51:53.935Z,22.35
2022-10-24T06:54:21.206Z,22.59
2022-10-24T06:56:49.445Z,22.09
2022-10-24T06:59:18.279Z,23.27
2022-10-24T07:01:46.425Z,24.35
2022-10-24T07:04:13.173Z,25.09
2022-10-24T07:06:40.336Z,25.36
2022-10-24T07:09:10.254Z,24.25
2022-10-24T07:11:39.718Z,25.41
2022-10-24T07:14:09.135Z,24.16
2022-10-24T07:16:36.652Z,25.09
2022-10-24T07:19:04.481Z,24.82
2022-10-24T07:21:32.741Z,25.32
2022-10-24T07:24:00.497Z,26.08
2022-10-24T07:26:29.140Z,23.57
2022-10-24T07:29:04.119Z,23.53
2022-10-24T07:31:34.284Z,25.44
2022-10-24T07:34:03.730Z,24.38
2022-10-24T07:36:33.332Z,23.88
2022-10-24T07:39:01.030Z,23.75
2022-10-24T07:41:30.090Z,25.09
2022-10-24T07:44:02.593Z,25.10
2022-10-24T07:46:29.713Z,25.27
2022-10-24T07:48:56.450Z,25.48
2022-10-24T07:51:23.567Z,27.08
2022-10-24T07:53:51.561Z,28.04
2022-10-24T07:56:18.616Z,28.72
2022-10-24T07:58:47.265Z,28.31
2022-10-24T08:01:20.800Z,29.73
2022-10-24T08:03:47.589Z,28.21
2022-10-24T08:06:18.618Z,29.34
2022-10-24T08:08:45.617Z,28.58
2022-10-24T08:11:17.660Z,26.58
2022-10-24T08:13:44.578Z,25.22
2022-10-24T08:16:13.720Z,26.84
2022-10-24T08:18:41.235Z,27.61
2022-10-24T08:21:10.649Z,26.80
2022-10-24T08:23:41.231Z,27.66
2022-10-24T08:26:09.892Z,29.38
2022-10-24T08:28:36.727Z,30.38
2022-10-24T08:31:06.229Z,31.16
2022-10-24T08:33:33.274Z,28.67
2022-10-24T08:36:02.982Z,27.53
2022-10-24T08:38:30.147Z,28.91
2022-10-24T08:40:58.175Z,28.73
2022-10-24T08:43:26.050Z,29.94
2022-10-24T08:46:14.812Z,28.73
2022-10-24T08:48:49.453Z,29.01
2022-10-24T08:51:28.486Z,30.34
2022-10-24T08:53:57.887Z,28.56
2022-10-24T08:56:29.595Z,26.80
2022-10-24T08:58:57.762Z,28.46
2022-10-24T09:01:44.327Z,29.77
2022-10-24T09:04:14.762Z,30.46
2022-10-24T09:06:41.987Z,31.81
2022-10-24T09:09:29.768Z,31.90
2022-10-24T09:12:01.362Z,33.02
2022-10-24T09:14:29.623Z,29.75
2022-10-24T09:17:09.908Z,28.60
2022-10-24T09:19:37.905Z,28.40
2022-10-24T09:22:06.803Z,28.08
2022-10-24T09:24:55.282Z,26.67
2022-10-24T09:27:29.833Z,27.80
2022-10-24T09:29:57.942Z,28.43
2022-10-24T09:32:28.041Z,26.81
2022-10-24T09:34:55.357Z,25.75
2022-10-24T09:37:46.947Z,27.73
2022-10-24T09:40:27.168Z,27.01
2022-10-24T09:43:17.339Z,25.92
2022-10-24T09:45:48.477Z,25.45
2022-10-24T09:48:35.788Z,24.50
2022-10-24T09:51:03.470Z,25.64
2022-10-24T09:53:36.387Z,26.07
2022-10-24T09:56:14.768Z,26.66
2022-10-24T09:58:43.167Z,26.75
2022-10-24T10:01:30.244Z,26.00
2022-10-24T10:04:08.422Z,26.51
2022-10-24T10:06:44.761Z,26.45
2022-10-24T10:09:25.751Z,27.26
2022-10-24T10:12:02.461Z,27.36
2022-10-24T10:14:30.285Z,25.04
2022-10-24T10:17:02.896Z,25.94
2022-10-24T10:19:36.180Z,24.22
2022-10-24T10:22:21.229Z,24.60
2022-10-24T10:24:48.495Z,26.25
2022-10-24T10:27:32.161Z,28.06
2022-10-24T10:30:15.168Z,28.08
2022-10-24T10:33:16.638Z,27.83
2022-10-24T10:35:58.685Z,28.67
2022-10-24T10:38:43.473Z,28.93
2022-10-24T10:41:22.897Z,28.26
2022-10-24T10:44:13.978Z,28.79
2022-10-24T10:47:01.875Z,30.09
2022-10-24T10:49:35.193Z,29.35
2022-10-24T10:52:18.560Z,29.69
2022-10-24T10:55:14.224Z,31.06
2022-10-24T10:57:58.835Z,30.90
2022-10-24T11:00:40.157Z,31.10
2022-10-24T11:03:22.901Z,30.57
2022-10-24T11:05:55.284Z,28.62
2022-10-24T11:08:49.670Z,29.81
2022-10-24T11:11:28.364Z,30.91
2022-10-24T11:14:03.546Z,30.84
2022-10-24T11:16:31.593Z,30.86
2022-10-24T11:19:21.126Z,29.35
2022-10-24T11:21:50.061Z,29.13
2022-10-24T11:24:23.191Z,28.77
2022-10-24T11:27:03.237Z,28.44
2022-10-24T11:29:48.518Z,27.77
2022-10-24T11:32:28.275Z,28.68
2022-10-24T11:35:01.940Z,28.95
2022-10-24T11:37:34.428Z,28.13
2022-10-24T11:40:10.563Z,28.15
2022-10-24T11:42:52.602Z,27.41
2022-10-24T11:45:22.978Z,27.60
2022-10-24T11:47:57.111Z,28.27
2022-10-24T11:50:51.501Z,28.27
2022-10-24T11:53:33.304Z,27.50
2022-10-24T11:56:06.238Z,28.19
2022-10-24T11:58:38.261Z,27.90
2022-10-24T12:01:20.243Z,28.40
2022-10-24T12:03:59.196Z,28.37
2022-10-24T12:06:45.755Z,27.94
2022-10-24T12:09:38.100Z,26.99
2022-10-24T12:12:13.836Z,26.48
2022-10-24T12:15:32.283Z,26.15
2022-10-24T12:18:09.198Z,25.76
2022-10-24T12:20:37.000Z,26.05
2022-10-24T12:23:04.019Z,26.46
2022-10-24T12:25:35.398Z,26.36
2022-10-24T12:28:12.269Z,26.07
2022-10-24T12:30:40.097Z,26.41
2022-10-24T12:33:11.506Z,26.50
2022-10-24T12:35:41.254Z,25.80
2022-10-24T12:38:38.441Z,25.35
2022-10-24T12:41:09.639Z,25.30
2022-10-24T12:43:44.389Z,24.82
2022-10-24T12:46:22.534Z,25.05
2022-10-24T12:48:59.094Z,25.18
2022-10-24T12:51:28.986Z,24.97
2022-10-24T12:54:10.950Z,24.71
2022-10-24T12:57:00.390Z,24.64
2022-10-24T12:59:31.815Z,24.69
2022-10-24T13:02:53.260Z,24.86
2022-10-24T13:05:45.976Z,24.72
2022-10-24T13:08:18.219Z,24.80
2022-10-24T13:11:06.131Z,24.92
2022-10-24T13:13:40.659Z,24.61
2022-10-24T13:16:18.554Z,24.50
2022-10-24T13:19:17.302Z,24.64
2022-10-24T13:21:48.588Z,24.40
2022-10-24T13:24:15.142Z,24.54
2022-10-24T13:27:12.533Z,24.55
2022-10-24T13:29:39.965Z,24.54
2022-10-24T13:32:06.567Z,24.22
2022-10-24T13:34:39.141Z,24.21
2022-10-24T13:37:12.687Z,24.13
2022-10-24T13:39:46.109Z,23.89
2022-10-24T13:42:27.494Z,23.68
2022-10-24T13:45:29.598Z,23.59
2022-10-24T13:48:02.776Z,23.57
2022-10-24T13:50:33.938Z,23.38
2022-10-24T13:53:16.038Z,23.57
2022-10-24T13:55:46.624Z,23.29
2022-10-24T13:58:19.443Z,23.47
2022-10-24T14:00:53.523Z,23.51
2022-10-24T14:03:24.028Z,23.30
2022-10-24T14:05:56.932Z,23.42
2022-10-24T14:08:28.438Z,23.42
2022-10-24T14:10:56.167Z,23.06
2022-10-24T14:13:25.502Z,22.80
2022-10-24T14:15:56.996Z,23.03
2022-10-24T14:18:24.011Z,22.79
2022-10-24T14:20:56.838Z,22.85
2022-10-24T14:23:24.703Z,22.81
2022-10-24T14:26:01.730Z,22.71
2022-10-24T14:28:35.190Z,22.68
2022-10-24T14:31:05.042Z,22.46
2022-10-24T14:33:42.629Z,22.32
2022-10-24T14:36:10.271Z,22.21
2022-10-24T14:38:37.504Z,22.08
2022-10-24T14:41:09.658Z,21.86
2022-10-24T14:43:41.527Z,21.53
2022-10-24T14:46:19.381Z,21.53
2022-10-24T14:48:48.733Z,21.15
2022-10-24T14:51:19.050Z,21.08
2022-10-24T14:53:46.259Z,20.78
2022-10-24T14:56:27.612Z,20.42
2022-10-24T14:58:56.823Z,20.32
2022-10-24T15:01:24.997Z,19.96
2022-10-24T15:04:01.305Z,20.04
2022-10-24T15:06:55.754Z,19.69
2022-10-24T15:09:23.028Z,19.54
2022-10-24T15:12:01.504Z,19.55
2022-10-24T15:14:33.351Z,19.43
2022-10-24T15:17:05.201Z,19.29
2022-10-24T15:19:38.660Z,18.78
2022-10-24T15:22:05.394Z,18.71
2022-10-24T15:24:32.488Z,18.50
2022-10-24T15:27:12.958Z,18.51
2022-10-24T15:29:40.920Z,18.26
2022-10-24T15:32:10.164Z,18.16
2022-10-24T15:34:36.787Z,18.00
2022-10-24T15:37:04.209Z,17.86
2022-10-24T15:39:30.861Z,17.62
2022-10-24T15:41:57.553Z,17.35
2022-10-24T15:44:30.540Z,17.23
2022-10-24T15:46:57.235Z,17.30
2022-10-24T15:49:24.121Z,16.74
2022-10-24T15:51:51.423Z,16.92
2022-10-24T15:54:21.600Z,16.88
2022-10-24T15:56:49.110Z,16.45
2022-10-24T15:59:16.085Z,16.49
2022-10-24T16:01:48.020Z,16.41
2022-10-24T16:04:15.425Z,16.13
2022-10-24T16:06:42.094Z,16.01
2022-10-24T16:09:21.339Z,15.99
2022-10-24T16:11:48.730Z,15.62
2022-10-24T16:14:18.002Z,15.78
2022-10-24T16:16:45.009Z,15.76
2022-10-24T16:19:11.667Z,15.53
2022-10-24T16:21:40.763Z,15.66
2022-10-24T16:24:08.959Z,15.39
2022-10-24T16:26:36.434Z,15.60
2022-10-24T16:29:04.231Z,15.57
2022-10-24T16:31:31.409Z,15.26
2022-10-24T16:33:59.187Z,15.30
2022-10-24T16:36:26.118Z,15.27
2022-10-24T16:38:52.812Z,15.32
2022-10-24T16:41:22.331Z,15.31
2022-10-24T16:43:50.301Z,15.22
2022-10-24T16:46:21.817Z,15.08
2022-10-24T16:48:49.646Z,15.09
2022-10-24T16:51:20.743Z,14.88
2022-10-24T16:53:47.439Z,14.71
2022-10-24T16:56:15.705Z,14.78
2022-10-24T16:58:43.223Z,14.70
2022-10-24T17:01:13.146Z,14.60
2022-10-24T17:03:40.360Z,14.42
2022-10-24T17:06:07.565Z,14.17
2022-10-24T17:08:34.713Z,14.32
2022-10-24T17:11:01.498Z,14.22
2022-10-24T17:13:28.895Z,14.08
2022-10-24T17:15:56.610Z,14.08
2022-10-24T17:18:25.596Z,14.14
2022-10-24T17:20:58.959Z,14.04
2022-10-24T17:23:26.570Z,13.96
2022-10-24T17:25:53.860Z,13.76
2022-10-24T17:28:20.932Z,13.55
2022-10-24T17:30:48.162Z,13.53
2022-10-24T17:33:15.246Z,13.69
2022-10-24T17:35:47.683Z,13.72
2022-10-24T17:38:14.323Z,13.68
2022-10-24T17:40:47.503Z,13.43
2022-10-24T17:43:25.939Z,13.35
2022-10-24T17:45:54.807Z,13.55
2022-10-24T17:48:22.204Z,13.41
2022-10-24T17:50:49.677Z,13.29
2022-10-24T17:53:18.758Z,13.27
2022-10-24T17:55:47.417Z,12.97
2022-10-24T17:58:15.594Z,13.18
2022-10-24T18:00:42.653Z,13.03
2022-10-24T18:03:09.677Z,13.09
2022-10-24T18:05:38.360Z,12.91
2022-10-24T18:08:07.547Z,12.74
2022-10-24T18:10:36.315Z,13.02
2022-10-24T18:13:03.131Z,13.01
2022-10-24T18:15:29.922Z,12.91
2022-10-24T18:17:56.599Z,12.80
2022-10-24T18:20:23.548Z,12.59
2022-10-24T18:22:50.649Z,12.70
2022-10-24T18:25:20.343Z,12.57
2022-10-24T18:27:50.034Z,12.55
2022-10-24T18:30:17.232Z,12.58
2022-10-24T18:32:44.622Z,12.48
2022-10-24T18:35:12.333Z,12.49
2022-10-24T18:37:39.295Z,12.47
2022-10-24T18:40:07.857Z,12.28
2022-10-24T18:42:47.852Z,12.24
2022-10-24T18:45:20.928Z,12.27
2022-10-24T18:47:48.886Z,12.08
2022-10-24T18:50:19.121Z,12.15
2022-10-24T18:53:03.621Z,12.03
2022-10-24T18:55:31.707Z,12.16
2022-10-24T18:57:59.108Z,12.21
2022-10-24T19:00:28.208Z,12.20
2022-10-24T19:03:09.267Z,12.00
2022-10-24T19:05:51.935Z,12.02
2022-10-24T19:08:24.023Z,11.82
2022-10-24T19:10:52.918Z,11.66
2022-10-24T19:13:19.724Z,11.90
2022-10-24T19:15:54.927Z,11.97
2022-10-24T19:18:21.762Z,11.94
2022-10-24T19:20:48.519Z,11.85
2022-10-24T19:23:17.336Z,11.67
2022-10-24T19:25:46.054Z,11.59
2022-10-24T19:28:16.858Z,11.66
2022-10-24T19:30:44.866Z,11.60
2022-10-24T19:33:12.976Z,11.58
2022-10-24T19:35:45.260Z,11.49
2022-10-24T19:38:11.913Z,11.36
2022-10-24T19:40:52.193Z,11.38
2022-10-24T19:43:19.719Z,11.32
2022-10-24T19:45:50.512Z,11.43
2022-10-24T19:48:32.122Z,11.49
2022-10-24T19:51:06.558Z,11.53
2022-10-24T19:53:35.653Z,11.44
2022-10-24T19:56:07.070Z,11.38
2022-10-24T19:58:34.250Z,11.18
2022-10-24T20:01:06.414Z,11.26
2022-10-24T20:03:36.775Z,11.33
2022-10-24T20:06:03.755Z,11.20
2022-10-24T20:08:30.348Z,11.07
2022-10-24T20:10:57.457Z,11.00
2022-10-24T20:13:24.450Z,11.02
2022-10-24T20:15:55.157Z,11.14
2022-10-24T20:18:22.861Z,11.21
2022-10-24T20:20:50.068Z,11.18
2022-10-24T20:23:18.076Z,11.14
2022-10-24T20:25:45.559Z,11.14
2022-10-24T20:28:12.239Z,11.10
2022-10-24T20:30:44.871Z,11.02
2022-10-24T20:33:11.941Z,10.99
2022-10-24T20:35:38.572Z,10.85
2022-10-24T20:38:05.247Z,10.83
2022-10-24T20:40:31.929Z,10.89
2022-10-24T20:42:58.785Z,10.85
2022-10-24T20:45:26.280Z,10.82
2022-10-24T20:47:52.982Z,10.72
2022-10-24T20:50:19.658Z,10.70
2022-10-24T20:52:46.534Z,10.64
2022-10-24T20:55:25.067Z,10.72
2022-10-24T20:57:58.961Z,10.71
2022-10-24T21:00:25.611Z,10.71
2022-10-24T21:02:52.449Z,10.70
2022-10-24T21:05:19.247Z,10.72
2022-10-24T21:07:50.085Z,10.74
2022-10-24T21:10:17.962Z,10.65
2022-10-24T21:12:47.545Z,10.64
2022-10-24T21:15:14.623Z,10.61
2022-10-24T21:17:41.294Z,10.60
2022-10-24T21:20:08.294Z,10.58
2022-10-24T21:22:35.010Z,10.53
2022-10-24T21:25:01.704Z,10.46
2022-10-24T21:27:28.382Z,10.56
2022-10-24T21:29:55.117Z,10.58
2022-10-24T21:32:21.741Z,10.60
2022-10-24T21:34:48.438Z,10.48
2022-10-24T21:37:15.092Z,10.45
2022-10-24T21:39:41.804Z,10.40
2022-10-24T21:42:08.423Z,10.31
2022-10-24T21:44:35.129Z,10.26
2022-10-24T21:47:01.966Z,10.30
2022-10-24T21:49:28.651Z,10.37
2022-10-24T21:51:55.374Z,10.30
2022-10-24T21:54:25.086Z,10.29
2022-10-24T21:56:51.874Z,10.27
2022-10-24T21:59:20.370Z,10.11
2022-10-24T22:01:49.120Z,10.20
2022-10-24T22:04:16.629Z,10.15
2022-10-24T22:06:44.743Z,10.10
2022-10-24T22:09:15.407Z,10.04
2022-10-24T22:11:42.986Z,10.03
2022-10-24T22:14:12.918Z,10.05
2022-10-24T22:16:41.543Z,10.02
2022-10-24T22:19:09.032Z,9.93
2022-10-24T22:21:37.183Z,9.81
2022-10-24T22:24:09.958Z,9.90
2022-10-24T22:26:37.487Z,9.81
2022-10-24T22:29:05.940Z,9.90
2022-10-24T22:31:33.759Z,9.64
2022-10-24T22:34:01.892Z,9.62
2022-10-24T22:37:00.779Z,9.67
2022-10-24T22:39:28.179Z,9.64
2022-10-24T22:41:55.395Z,9.65
2022-10-24T22:44:22.801Z,9.67
2022-10-24T22:47:24.771Z,9.67
2022-10-24T22:49:59.629Z,9.59
2022-10-24T22:52:26.582Z,9.48
2022-10-24T22:54:53.630Z,9.56
2022-10-24T22:57:20.698Z,9.61
2022-10-24T22:59:47.617Z,9.64
2022-10-24T23:02:27.844Z,9.52
2022-10-24T23:05:13.921Z,9.54
2022-10-24T23:08:06.782Z,9.59
2022-10-24T23:10:36.534Z,9.58
2022-10-24T23:13:04.062Z,9.64
2022-10-24T23:15:31.002Z,9.49
2022-10-24T23:17:57.867Z,9.53
2022-10-24T23:20:40.060Z,9.39
2022-10-24T23:23:24.344Z,9.39
2022-10-24T23:26:09.054Z,9.34
2022-10-24T23:29:07.742Z,9.31
2022-10-24T23:31:34.610Z,9.34
2022-10-24T23:34:01.624Z,9.39
2022-10-24T23:36:30.157Z,9.38
2022-10-24T23:38:57.257Z,9.39
2022-10-24T23:41:24.257Z,9.36
2022-10-24T23:43:51.174Z,9.37
2022-10-24T23:46:20.844Z,9.38
2022-10-24T23:48:47.439Z,9.40
2022-10-24T23:51:36.821Z,9.40
2022-10-24T23:54:09.810Z,9.31
2022-10-24T23:56:39.116Z,9.35
2022-10-24T23:59:06.150Z,9.31
